NFC9315 EKBI-EPGD
Flight info
| Callsign | NFC9315 |
|---|---|
| Flight time | 0h 58m |
| Altitude | 37000 |
| Route | RIDSI DCT RUMAR L983 DOMAG T240 OGDAV |
| Aircraft | B738/M-SDE2E3FGHIRWXY/LB1 |
Departure
| Time | 2026-05-08 05:05 |
|---|---|
| Airport | Billund Airport (EKBI) |
Arrival
| Time | 2026-05-08 06:03 |
|---|---|
| Airport | Gdańsk Lech Wałęsa Airport (EPGD) |
| Time | Latitude | Longitude | Altitude | Speed | Heading |
|---|---|---|---|---|---|
| 2026-05-08 04:51 | 55.73769 | 9.13840 | 217 ft | 0 kts | 179° |
| 2026-05-08 04:58 | 55.73776 | 9.13840 | 221 ft | 4 kts | 176° |
| 2026-05-08 04:58 | 55.73798 | 9.13836 | 215 ft | 4 kts | 180° |
| 2026-05-08 04:59 | 55.73822 | 9.13846 | 216 ft | 4 kts | 225° |
| 2026-05-08 04:59 | 55.73832 | 9.13884 | 218 ft | 3 kts | 266° |
| 2026-05-08 04:59 | 55.73834 | 9.13924 | 218 ft | 1 kts | 266° |
| 2026-05-08 04:59 | 55.73834 | 9.13925 | 218 ft | 0 kts | 266° |
| 2026-05-08 05:01 | 55.73834 | 9.13921 | 215 ft | 1 kts | 266° |
| 2026-05-08 05:01 | 55.73833 | 9.13886 | 222 ft | 4 kts | 266° |
| 2026-05-08 05:01 | 55.73830 | 9.13811 | 215 ft | 8 kts | 265° |
| 2026-05-08 05:02 | 55.73824 | 9.13700 | 215 ft | 10 kts | 266° |
| 2026-05-08 05:02 | 55.73823 | 9.13603 | 215 ft | 6 kts | 279° |
| 2026-05-08 05:02 | 55.73859 | 9.13573 | 215 ft | 6 kts | 9° |
| 2026-05-08 05:02 | 55.73877 | 9.13579 | 217 ft | 0 kts | 13° |
| 2026-05-08 05:03 | 55.73878 | 9.13579 | 217 ft | 0 kts | 13° |
| 2026-05-08 05:03 | 55.73891 | 9.13585 | 217 ft | 5 kts | 11° |
| 2026-05-08 05:03 | 55.73940 | 9.13600 | 219 ft | 8 kts | 6° |
| 2026-05-08 05:04 | 55.73980 | 9.13602 | 219 ft | 5 kts | 28° |
| 2026-05-08 05:04 | 55.73987 | 9.13635 | 217 ft | 0 kts | 84° |
| 2026-05-08 05:04 | 55.73995 | 9.13828 | 215 ft | 47 kts | 86° |
| 2026-05-08 05:04 | 55.74023 | 9.14841 | 215 ft | 115 kts | 87° |
| 2026-05-08 05:05 | 55.74080 | 9.16569 | 299 ft | 159 kts | 86° |
| 2026-05-08 05:05 | 55.74147 | 9.18558 | 951 ft | 161 kts | 88° |
| 2026-05-08 05:05 | 55.74204 | 9.20549 | 1698 ft | 162 kts | 88° |
| 2026-05-08 05:05 | 55.74262 | 9.22611 | 2286 ft | 179 kts | 88° |
| 2026-05-08 05:06 | 55.74325 | 9.25004 | 2566 ft | 207 kts | 88° |
| 2026-05-08 05:06 | 55.74324 | 9.27682 | 2829 ft | 226 kts | 101° |
| 2026-05-08 05:06 | 55.73829 | 9.30387 | 3223 ft | 241 kts | 111° |
| 2026-05-08 05:06 | 55.73215 | 9.33244 | 3707 ft | 253 kts | 111° |
| 2026-05-08 05:07 | 55.72583 | 9.36192 | 4559 ft | 256 kts | 111° |
| 2026-05-08 05:07 | 55.71953 | 9.39147 | 5439 ft | 258 kts | 111° |
| 2026-05-08 05:07 | 55.71316 | 9.42152 | 6266 ft | 262 kts | 111° |
| 2026-05-08 05:07 | 55.70681 | 9.45159 | 7063 ft | 266 kts | 111° |
| 2026-05-08 05:08 | 55.70031 | 9.48243 | 7855 ft | 268 kts | 111° |
| 2026-05-08 05:08 | 55.69376 | 9.51359 | 8646 ft | 272 kts | 111° |
| 2026-05-08 05:08 | 55.68713 | 9.54515 | 9448 ft | 275 kts | 111° |
| 2026-05-08 05:08 | 55.68043 | 9.57702 | 10234 ft | 277 kts | 111° |
| 2026-05-08 05:09 | 55.67355 | 9.60968 | 10686 ft | 293 kts | 111° |
| 2026-05-08 05:09 | 55.66613 | 9.64491 | 10874 ft | 316 kts | 111° |
| 2026-05-08 05:09 | 55.65827 | 9.68214 | 11327 ft | 328 kts | 111° |
| 2026-05-08 05:09 | 55.65022 | 9.72028 | 12024 ft | 332 kts | 111° |
| 2026-05-08 05:10 | 55.64208 | 9.75874 | 12786 ft | 336 kts | 111° |
| 2026-05-08 05:10 | 55.62548 | 9.83700 | 14258 ft | 344 kts | 111° |
| 2026-05-08 05:10 | 55.61700 | 9.87690 | 14952 ft | 348 kts | 111° |
| 2026-05-08 05:11 | 55.60840 | 9.91727 | 15652 ft | 352 kts | 111° |
| 2026-05-08 05:11 | 55.59968 | 9.95806 | 16341 ft | 357 kts | 111° |
| 2026-05-08 05:11 | 55.59128 | 9.99959 | 17029 ft | 362 kts | 105° |
| 2026-05-08 05:11 | 55.58684 | 10.04372 | 17710 ft | 367 kts | 98° |
| 2026-05-08 05:12 | 55.58391 | 10.08882 | 18401 ft | 372 kts | 97° |
| 2026-05-08 05:12 | 55.58127 | 10.13445 | 18984 ft | 376 kts | 96° |
| 2026-05-08 05:12 | 55.57860 | 10.18069 | 19598 ft | 379 kts | 97° |
| 2026-05-08 05:12 | 55.57580 | 10.22720 | 20210 ft | 382 kts | 97° |
| 2026-05-08 05:13 | 55.57284 | 10.27407 | 20808 ft | 386 kts | 97° |
| 2026-05-08 05:13 | 55.56976 | 10.32130 | 21380 ft | 389 kts | 97° |
| 2026-05-08 05:13 | 55.56655 | 10.36901 | 21971 ft | 393 kts | 97° |
| 2026-05-08 05:13 | 55.56326 | 10.41711 | 22532 ft | 396 kts | 97° |
| 2026-05-08 05:14 | 55.55990 | 10.46565 | 23099 ft | 400 kts | 98° |
| 2026-05-08 05:14 | 55.55648 | 10.51457 | 23634 ft | 403 kts | 98° |
| 2026-05-08 05:14 | 55.55300 | 10.56387 | 24118 ft | 406 kts | 98° |
| 2026-05-08 05:14 | 55.54948 | 10.61350 | 24610 ft | 408 kts | 98° |
| 2026-05-08 05:15 | 55.54593 | 10.66324 | 25108 ft | 409 kts | 98° |
| 2026-05-08 05:15 | 55.54235 | 10.71317 | 25588 ft | 411 kts | 98° |
| 2026-05-08 05:15 | 55.53873 | 10.76328 | 26044 ft | 413 kts | 98° |
| 2026-05-08 05:15 | 55.53507 | 10.81367 | 26491 ft | 415 kts | 98° |
| 2026-05-08 05:16 | 55.53136 | 10.86438 | 26934 ft | 417 kts | 98° |
| 2026-05-08 05:16 | 55.52763 | 10.91521 | 27370 ft | 419 kts | 98° |
| 2026-05-08 05:16 | 55.52385 | 10.96629 | 27791 ft | 421 kts | 98° |
| 2026-05-08 05:16 | 55.52009 | 11.01694 | 28189 ft | 423 kts | 98° |
| 2026-05-08 05:17 | 55.51623 | 11.06853 | 28582 ft | 425 kts | 98° |
| 2026-05-08 05:17 | 55.51233 | 11.12037 | 28976 ft | 427 kts | 98° |
| 2026-05-08 05:17 | 55.50839 | 11.17247 | 29367 ft | 429 kts | 98° |
| 2026-05-08 05:17 | 55.50442 | 11.22467 | 29750 ft | 431 kts | 98° |
| 2026-05-08 05:18 | 55.50040 | 11.27720 | 30118 ft | 432 kts | 98° |
| 2026-05-08 05:18 | 55.49635 | 11.32986 | 30434 ft | 434 kts | 98° |
| 2026-05-08 05:18 | 55.49226 | 11.38270 | 30724 ft | 436 kts | 98° |
| 2026-05-08 05:18 | 55.48813 | 11.43572 | 31070 ft | 436 kts | 98° |
| 2026-05-08 05:19 | 55.48400 | 11.48853 | 31514 ft | 434 kts | 98° |
| 2026-05-08 05:19 | 55.47987 | 11.54094 | 31971 ft | 431 kts | 98° |
| 2026-05-08 05:19 | 55.47574 | 11.59316 | 32385 ft | 429 kts | 98° |
| 2026-05-08 05:19 | 55.47159 | 11.64521 | 32742 ft | 429 kts | 98° |
| 2026-05-08 05:20 | 55.46743 | 11.69714 | 33124 ft | 428 kts | 98° |
| 2026-05-08 05:20 | 55.46326 | 11.74894 | 33535 ft | 426 kts | 98° |
| 2026-05-08 05:20 | 55.45910 | 11.80040 | 33965 ft | 423 kts | 98° |
| 2026-05-08 05:20 | 55.45493 | 11.85165 | 34333 ft | 422 kts | 98° |
| 2026-05-08 05:21 | 55.45079 | 11.90224 | 34538 ft | 424 kts | 98° |
| 2026-05-08 05:21 | 55.44649 | 11.95445 | 34694 ft | 427 kts | 98° |
| 2026-05-08 05:21 | 55.44227 | 12.00549 | 34907 ft | 428 kts | 98° |
| 2026-05-08 05:21 | 55.43796 | 12.05730 | 35146 ft | 428 kts | 98° |
| 2026-05-08 05:22 | 55.43362 | 12.10928 | 35346 ft | 430 kts | 98° |
| 2026-05-08 05:22 | 55.42924 | 12.16137 | 35536 ft | 431 kts | 98° |
| 2026-05-08 05:22 | 55.42482 | 12.21367 | 35750 ft | 432 kts | 99° |
| 2026-05-08 05:22 | 55.42037 | 12.26605 | 35957 ft | 433 kts | 99° |
| 2026-05-08 05:23 | 55.41589 | 12.31858 | 36143 ft | 434 kts | 99° |
| 2026-05-08 05:23 | 55.41138 | 12.37120 | 36337 ft | 436 kts | 99° |
| 2026-05-08 05:23 | 55.40683 | 12.42399 | 36533 ft | 437 kts | 99° |
| 2026-05-08 05:23 | 55.40224 | 12.47682 | 36718 ft | 438 kts | 99° |
| 2026-05-08 05:24 | 55.39762 | 12.52981 | 36917 ft | 439 kts | 99° |
| 2026-05-08 05:24 | 55.39311 | 12.58132 | 37100 ft | 439 kts | 99° |
| 2026-05-08 05:24 | 55.38847 | 12.63398 | 37211 ft | 439 kts | 99° |
| 2026-05-08 05:25 | 55.37903 | 12.74039 | 37235 ft | 441 kts | 99° |
| 2026-05-08 05:25 | 55.36948 | 12.84691 | 37231 ft | 441 kts | 99° |
| 2026-05-08 05:26 | 55.35984 | 12.95346 | 37231 ft | 441 kts | 99° |
| 2026-05-08 05:26 | 55.35010 | 13.05990 | 37230 ft | 441 kts | 99° |
| 2026-05-08 05:27 | 55.34028 | 13.16618 | 37231 ft | 441 kts | 100° |
| 2026-05-08 05:27 | 55.33038 | 13.27239 | 37238 ft | 440 kts | 100° |
| 2026-05-08 05:28 | 55.32037 | 13.37856 | 37240 ft | 440 kts | 100° |
| 2026-05-08 05:28 | 55.31030 | 13.48455 | 37240 ft | 440 kts | 100° |
| 2026-05-08 05:29 | 55.30013 | 13.59048 | 37247 ft | 440 kts | 100° |
| 2026-05-08 05:29 | 55.28986 | 13.69631 | 37249 ft | 440 kts | 100° |
| 2026-05-08 05:30 | 55.27956 | 13.80156 | 37243 ft | 441 kts | 100° |
| 2026-05-08 05:30 | 55.26910 | 13.90743 | 37254 ft | 441 kts | 100° |
| 2026-05-08 05:31 | 55.25855 | 14.01331 | 37250 ft | 441 kts | 101° |
| 2026-05-08 05:31 | 55.24788 | 14.11929 | 37247 ft | 442 kts | 100° |
| 2026-05-08 05:32 | 55.23713 | 14.22527 | 37250 ft | 442 kts | 101° |
| 2026-05-08 05:32 | 55.22657 | 14.32837 | 37247 ft | 443 kts | 101° |
| 2026-05-08 05:33 | 55.21559 | 14.43458 | 37241 ft | 443 kts | 101° |
| 2026-05-08 05:33 | 55.20450 | 14.54095 | 37243 ft | 444 kts | 101° |
| 2026-05-08 05:34 | 55.19330 | 14.64730 | 37244 ft | 445 kts | 101° |
| 2026-05-08 05:34 | 55.18200 | 14.75389 | 37245 ft | 446 kts | 101° |
| 2026-05-08 05:35 | 55.17056 | 14.86057 | 37234 ft | 447 kts | 102° |
| 2026-05-08 05:35 | 55.15902 | 14.96751 | 37242 ft | 448 kts | 102° |
| 2026-05-08 05:36 | 55.14931 | 15.05664 | 36909 ft | 453 kts | 102° |
| 2026-05-08 05:36 | 55.14339 | 15.11063 | 36570 ft | 449 kts | 102° |
| 2026-05-08 05:36 | 55.13754 | 15.16390 | 36134 ft | 444 kts | 101° |
| 2026-05-08 05:36 | 55.13172 | 15.21659 | 35728 ft | 440 kts | 101° |
| 2026-05-08 05:37 | 55.12594 | 15.26878 | 35326 ft | 435 kts | 101° |
| 2026-05-08 05:37 | 55.11833 | 15.33712 | 34791 ft | 430 kts | 101° |
| 2026-05-08 05:37 | 55.11447 | 15.37164 | 34521 ft | 427 kts | 101° |
| 2026-05-08 05:37 | 55.10878 | 15.42228 | 34101 ft | 423 kts | 101° |
| 2026-05-08 05:38 | 55.10313 | 15.47245 | 33634 ft | 419 kts | 101° |
| 2026-05-08 05:38 | 55.09752 | 15.52198 | 33259 ft | 413 kts | 100° |
| 2026-05-08 05:38 | 55.09196 | 15.57100 | 32841 ft | 409 kts | 99° |
| 2026-05-08 05:38 | 55.08645 | 15.61938 | 32458 ft | 404 kts | 100° |
| 2026-05-08 05:39 | 55.08098 | 15.66720 | 32077 ft | 400 kts | 100° |
| 2026-05-08 05:39 | 55.07553 | 15.71463 | 31686 ft | 396 kts | 99° |
| 2026-05-08 05:39 | 55.07013 | 15.76145 | 31313 ft | 392 kts | 100° |
| 2026-05-08 05:39 | 55.06476 | 15.80790 | 30951 ft | 389 kts | 99° |
| 2026-05-08 05:40 | 55.05942 | 15.85391 | 30587 ft | 385 kts | 99° |
| 2026-05-08 05:40 | 55.05418 | 15.89889 | 30219 ft | 382 kts | 99° |
| 2026-05-08 05:40 | 55.04892 | 15.94406 | 29807 ft | 378 kts | 99° |
| 2026-05-08 05:40 | 55.04369 | 15.98868 | 29436 ft | 373 kts | 99° |
| 2026-05-08 05:41 | 55.03851 | 16.03272 | 29067 ft | 368 kts | 99° |
| 2026-05-08 05:41 | 55.03365 | 16.07625 | 28709 ft | 363 kts | 96° |
| 2026-05-08 05:41 | 55.02915 | 16.11911 | 28532 ft | 356 kts | 106° |
| 2026-05-08 05:41 | 55.01973 | 16.15849 | 28337 ft | 350 kts | 112° |
| 2026-05-08 05:42 | 55.00940 | 16.19710 | 27535 ft | 355 kts | 113° |
| 2026-05-08 05:42 | 54.99867 | 16.23640 | 26640 ft | 363 kts | 113° |
| 2026-05-08 05:42 | 54.98773 | 16.27618 | 25966 ft | 364 kts | 113° |
| 2026-05-08 05:42 | 54.97686 | 16.31563 | 25444 ft | 360 kts | 113° |
| 2026-05-08 05:43 | 54.96607 | 16.35484 | 24925 ft | 357 kts | 114° |
| 2026-05-08 05:43 | 54.95537 | 16.39367 | 24380 ft | 355 kts | 114° |
| 2026-05-08 05:43 | 54.94474 | 16.43231 | 23821 ft | 353 kts | 114° |
| 2026-05-08 05:43 | 54.93418 | 16.47065 | 23137 ft | 350 kts | 113° |
| 2026-05-08 05:44 | 54.92374 | 16.50858 | 22539 ft | 346 kts | 112° |
| 2026-05-08 05:44 | 54.91341 | 16.54605 | 21991 ft | 341 kts | 114° |
| 2026-05-08 05:44 | 54.90321 | 16.58286 | 21501 ft | 334 kts | 114° |
| 2026-05-08 05:44 | 54.89319 | 16.61897 | 20929 ft | 331 kts | 113° |
| 2026-05-08 05:45 | 54.88324 | 16.65486 | 20365 ft | 328 kts | 114° |
| 2026-05-08 05:45 | 54.87341 | 16.69032 | 19811 ft | 325 kts | 114° |
| 2026-05-08 05:45 | 54.86364 | 16.72552 | 19240 ft | 323 kts | 114° |
| 2026-05-08 05:45 | 54.85395 | 16.76039 | 18787 ft | 317 kts | 115° |
| 2026-05-08 05:46 | 54.84439 | 16.79471 | 18249 ft | 314 kts | 114° |
| 2026-05-08 05:46 | 54.83496 | 16.82850 | 17673 ft | 311 kts | 114° |
| 2026-05-08 05:46 | 54.82552 | 16.86229 | 17093 ft | 310 kts | 114° |
| 2026-05-08 05:46 | 54.81619 | 16.89562 | 16624 ft | 306 kts | 114° |
| 2026-05-08 05:47 | 54.80694 | 16.92864 | 16185 ft | 302 kts | 114° |
| 2026-05-08 05:47 | 54.79779 | 16.96123 | 15716 ft | 299 kts | 114° |
| 2026-05-08 05:47 | 54.78874 | 16.99346 | 15235 ft | 297 kts | 114° |
| 2026-05-08 05:47 | 54.77971 | 17.02555 | 14766 ft | 295 kts | 115° |
| 2026-05-08 05:48 | 54.77072 | 17.05748 | 14301 ft | 294 kts | 115° |
| 2026-05-08 05:48 | 54.76175 | 17.08927 | 13916 ft | 294 kts | 115° |
| 2026-05-08 05:48 | 54.75280 | 17.12096 | 13557 ft | 292 kts | 115° |
| 2026-05-08 05:48 | 54.74390 | 17.15242 | 13226 ft | 290 kts | 114° |
| 2026-05-08 05:49 | 54.73520 | 17.18311 | 12932 ft | 287 kts | 114° |
| 2026-05-08 05:49 | 54.72646 | 17.21393 | 12633 ft | 284 kts | 114° |
| 2026-05-08 05:49 | 54.71779 | 17.24446 | 12327 ft | 282 kts | 114° |
| 2026-05-08 05:49 | 54.70919 | 17.27470 | 12029 ft | 279 kts | 114° |
| 2026-05-08 05:50 | 54.70065 | 17.30468 | 11726 ft | 277 kts | 114° |
| 2026-05-08 05:50 | 54.69215 | 17.33447 | 11431 ft | 275 kts | 114° |
| 2026-05-08 05:50 | 54.68372 | 17.36403 | 11140 ft | 273 kts | 114° |
| 2026-05-08 05:50 | 54.67535 | 17.39331 | 10851 ft | 271 kts | 114° |
| 2026-05-08 05:51 | 54.66702 | 17.42240 | 10564 ft | 269 kts | 114° |
| 2026-05-08 05:51 | 54.65878 | 17.45116 | 10394 ft | 263 kts | 114° |
| 2026-05-08 05:51 | 54.65076 | 17.47907 | 10271 ft | 255 kts | 113° |
| 2026-05-08 05:51 | 54.64297 | 17.50619 | 10060 ft | 252 kts | 114° |
| 2026-05-08 05:52 | 54.63525 | 17.53310 | 9815 ft | 249 kts | 114° |
| 2026-05-08 05:52 | 54.62757 | 17.55977 | 9552 ft | 247 kts | 114° |
| 2026-05-08 05:52 | 54.61995 | 17.58623 | 9286 ft | 245 kts | 114° |
| 2026-05-08 05:52 | 54.61239 | 17.61245 | 9049 ft | 243 kts | 114° |
| 2026-05-08 05:53 | 54.60489 | 17.63844 | 8764 ft | 242 kts | 114° |
| 2026-05-08 05:53 | 54.59731 | 17.66467 | 8374 ft | 245 kts | 114° |
| 2026-05-08 05:53 | 54.58971 | 17.69095 | 8093 ft | 244 kts | 114° |
| 2026-05-08 05:53 | 54.58213 | 17.71710 | 7819 ft | 243 kts | 114° |
| 2026-05-08 05:54 | 54.57459 | 17.74308 | 7562 ft | 242 kts | 114° |
| 2026-05-08 05:54 | 54.56708 | 17.76895 | 7301 ft | 240 kts | 114° |
| 2026-05-08 05:54 | 54.55963 | 17.79457 | 7055 ft | 238 kts | 114° |
| 2026-05-08 05:54 | 54.55223 | 17.81999 | 6815 ft | 237 kts | 114° |
| 2026-05-08 05:55 | 54.54488 | 17.84522 | 6577 ft | 234 kts | 114° |
| 2026-05-08 05:55 | 54.53761 | 17.87013 | 6326 ft | 232 kts | 114° |
| 2026-05-08 05:55 | 54.53041 | 17.89478 | 6104 ft | 229 kts | 114° |
| 2026-05-08 05:55 | 54.52326 | 17.91927 | 5850 ft | 228 kts | 114° |
| 2026-05-08 05:56 | 54.51617 | 17.94352 | 5606 ft | 226 kts | 114° |
| 2026-05-08 05:56 | 54.50915 | 17.96751 | 5383 ft | 224 kts | 114° |
| 2026-05-08 05:56 | 54.50214 | 17.99149 | 5139 ft | 226 kts | 113° |
| 2026-05-08 05:56 | 54.49496 | 18.01600 | 4895 ft | 234 kts | 113° |
| 2026-05-08 05:57 | 54.48754 | 18.04130 | 4640 ft | 238 kts | 113° |
| 2026-05-08 05:57 | 54.48021 | 18.06619 | 4514 ft | 229 kts | 113° |
| 2026-05-08 05:57 | 54.47311 | 18.09026 | 4411 ft | 222 kts | 113° |
| 2026-05-08 05:57 | 54.46625 | 18.11349 | 4304 ft | 214 kts | 113° |
| 2026-05-08 05:58 | 54.45961 | 18.13593 | 4206 ft | 206 kts | 113° |
| 2026-05-08 05:58 | 54.45324 | 18.15747 | 4115 ft | 200 kts | 112° |
| 2026-05-08 05:58 | 54.44760 | 18.17921 | 3950 ft | 201 kts | 109° |
| 2026-05-08 05:58 | 54.44225 | 18.20146 | 3742 ft | 200 kts | 108° |
| 2026-05-08 05:59 | 54.43701 | 18.22317 | 3530 ft | 193 kts | 108° |
| 2026-05-08 05:59 | 54.43195 | 18.24406 | 3305 ft | 186 kts | 108° |
| 2026-05-08 05:59 | 54.42705 | 18.26419 | 3082 ft | 179 kts | 108° |
| 2026-05-08 05:59 | 54.42235 | 18.28356 | 2850 ft | 170 kts | 108° |
| 2026-05-08 06:00 | 54.41790 | 18.30165 | 2589 ft | 159 kts | 107° |
| 2026-05-08 06:00 | 54.41378 | 18.31859 | 2377 ft | 146 kts | 108° |
| 2026-05-08 06:00 | 54.41005 | 18.33387 | 2178 ft | 134 kts | 107° |
| 2026-05-08 06:00 | 54.40648 | 18.34856 | 1951 ft | 132 kts | 107° |
| 2026-05-08 06:01 | 54.40298 | 18.36293 | 1744 ft | 129 kts | 107° |
| 2026-05-08 06:01 | 54.39960 | 18.37706 | 1544 ft | 128 kts | 107° |
| 2026-05-08 06:01 | 54.39619 | 18.39116 | 1351 ft | 128 kts | 108° |
| 2026-05-08 06:01 | 54.39267 | 18.40533 | 1149 ft | 130 kts | 108° |
| 2026-05-08 06:02 | 54.38908 | 18.41955 | 929 ft | 130 kts | 109° |
| 2026-05-08 06:02 | 54.38544 | 18.43407 | 718 ft | 134 kts | 109° |
| 2026-05-08 06:02 | 54.38187 | 18.44880 | 544 ft | 133 kts | 108° |
| 2026-05-08 06:02 | 54.37840 | 18.46280 | 458 ft | 117 kts | 110° |
| 2026-05-08 06:03 | 54.37580 | 18.47343 | 462 ft | 74 kts | 113° |
| 2026-05-08 06:03 | 54.37411 | 18.48026 | 472 ft | 56 kts | 112° |
| 2026-05-08 06:03 | 54.37309 | 18.48443 | 482 ft | 18 kts | 114° |
| 2026-05-08 06:03 | 54.37317 | 18.48591 | 487 ft | 13 kts | 39° |
| 2026-05-08 06:04 | 54.37396 | 18.48656 | 490 ft | 13 kts | 16° |
| 2026-05-08 06:04 | 54.37456 | 18.48560 | 485 ft | 14 kts | 290° |
| 2026-05-08 06:04 | 54.37495 | 18.48397 | 480 ft | 17 kts | 294° |
| 2026-05-08 06:04 | 54.37545 | 18.48200 | 472 ft | 19 kts | 292° |
| 2026-05-08 06:05 | 54.37600 | 18.47976 | 470 ft | 21 kts | 293° |
| 2026-05-08 06:05 | 54.37653 | 18.47760 | 464 ft | 20 kts | 293° |
| 2026-05-08 06:05 | 54.37710 | 18.47535 | 461 ft | 21 kts | 294° |
| 2026-05-08 06:05 | 54.37761 | 18.47329 | 459 ft | 18 kts | 293° |
| 2026-05-08 06:06 | 54.37809 | 18.47138 | 457 ft | 17 kts | 293° |
| 2026-05-08 06:06 | 54.37857 | 18.46983 | 458 ft | 13 kts | 322° |
| 2026-05-08 06:06 | 54.37939 | 18.47003 | 459 ft | 12 kts | 31° |
| 2026-05-08 06:06 | 54.37962 | 18.47108 | 459 ft | 9 kts | 111° |
| 2026-05-08 06:07 | 54.37938 | 18.47204 | 442 ft | 9 kts | 114° |
| 2026-05-08 06:07 | 54.37919 | 18.47279 | 456 ft | 2 kts | 110° |
| 2026-05-08 06:07 | 54.37926 | 18.47296 | 459 ft | 2 kts | 27° |
| 2026-05-08 06:07 | 54.37938 | 18.47293 | 456 ft | 2 kts | 352° |
| 2026-05-08 06:08 | 54.37949 | 18.47291 | 457 ft | 2 kts | 353° |
| 2026-05-08 06:08 | 54.37960 | 18.47288 | 459 ft | 2 kts | 353° |
| 2026-05-08 06:08 | 54.37968 | 18.47287 | 459 ft | 0 kts | 353° |
| 2026-05-08 06:08 | 54.37971 | 18.47286 | 459 ft | 0 kts | 353° |
| 2026-05-08 06:09 | 54.37974 | 18.47285 | 459 ft | 0 kts | 353° |